Time;durP1;ratioP1;P1;durP2;ratioP2;P2;SDS_P1;SDS_P2;PMS_P1;PMS_P2;Temp;Humidity;BMP_temperature;BMP_pressure;BME280_temperature;BME280_humidity;BME280_pressure;Samples;Min_cycle;Max_cycle;Signal;HPM_P1;HPM_P2
2022/08/18 00:02:24;;;;;;;190.47;86.20;;;;;;;23.20;73.78;100869.22;4930271;28;124319;-80
2022/08/18 00:04:51;;;;;;;198.65;86.88;;;;;;;23.17;73.74;100870.25;4918713;28;122386;-81
2022/08/18 00:07:24;;;;;;;183.23;84.60;;;;;;;23.22;73.28;100872.22;4931743;28;125759;-81
2022/08/18 00:09:51;;;;;;;191.82;85.57;;;;;;;23.22;73.24;100869.44;4942156;28;125688;-81
2022/08/18 00:12:23;;;;;;;198.23;86.30;;;;;;;23.22;73.20;100858.22;4903956;28;122104;-81
2022/08/18 00:14:50;;;;;;;198.77;84.35;;;;;;;23.26;73.30;100867.06;4942004;28;122540;-80
2022/08/18 00:17:16;;;;;;;199.00;86.13;;;;;;;23.33;73.23;100873.31;4935272;28;126657;-81
2022/08/18 00:19:43;;;;;;;203.30;86.83;;;;;;;23.37;73.68;100876.53;4927154;28;122918;-80
2022/08/18 00:22:10;;;;;;;187.63;81.97;;;;;;;23.41;72.72;100860.19;4941105;28;122773;-80
2022/08/18 00:24:37;;;;;;;184.25;82.03;;;;;;;23.42;73.13;100865.28;4929028;28;125297;-81
2022/08/18 00:27:04;;;;;;;179.88;79.78;;;;;;;23.45;72.89;100867.00;4920869;28;124405;-80
2022/08/18 00:29:30;;;;;;;181.93;80.13;;;;;;;23.44;73.14;100861.94;4937389;28;122794;-81
2022/08/18 00:31:56;;;;;;;170.93;77.70;;;;;;;23.42;73.28;100854.06;4922822;28;124361;-80
2022/08/18 00:34:22;;;;;;;156.70;73.67;;;;;;;23.43;73.07;100854.84;4904474;28;124629;-80
2022/08/18 00:36:49;;;;;;;138.80;68.17;;;;;;;23.35;73.11;100848.34;4936912;28;123916;-80
2022/08/18 00:39:15;;;;;;;139.30;66.75;;;;;;;23.41;72.89;100857.38;4922766;28;122908;-80
2022/08/18 00:41:41;;;;;;;101.60;54.00;;;;;;;23.34;72.73;100855.97;4940348;28;122143;-80
2022/08/18 00:44:07;;;;;;;106.93;53.58;;;;;;;23.36;73.13;100855.44;4930439;28;123009;-80
2022/08/18 00:46:36;;;;;;;92.75;49.20;;;;;;;23.33;73.28;100851.69;4919096;28;125308;-80
2022/08/18 00:49:03;;;;;;;79.78;43.92;;;;;;;23.32;73.03;100841.03;4925065;28;123751;-79
2022/08/18 00:51:33;;;;;;;70.03;38.65;;;;;;;23.30;72.31;100843.59;4906830;28;122153;-80
2022/08/18 00:54:14;;;;;;;56.25;31.92;;;;;;;23.28;73.12;100847.69;4913935;28;122983;-80
2022/08/18 00:56:52;;;;;;;53.47;31.38;;;;;;;23.18;73.03;100823.44;4933137;28;124237;-80
2022/08/18 00:59:43;;;;;;;51.95;29.77;;;;;;;23.23;73.44;100831.75;4927069;28;123211;-80
2022/08/18 01:02:14;;;;;;;45.47;27.42;;;;;;;23.21;72.56;100820.34;4901615;28;123090;-80
2022/08/18 01:04:55;;;;;;;47.00;27.95;;;;;;;23.20;73.01;100830.03;4919088;28;123711;-80
2022/08/18 01:07:31;;;;;;;49.80;28.05;;;;;;;23.19;73.38;100820.13;4939828;28;122344;-79
2022/08/18 01:10:02;;;;;;;45.70;26.45;;;;;;;23.22;72.75;100815.50;4934812;28;123199;-80
2022/08/18 01:12:28;;;;;;;35.25;21.15;;;;;;;23.27;72.33;100806.25;4925514;28;122319;-80
2022/08/18 01:14:55;;;;;;;31.53;20.73;;;;;;;23.25;72.73;100806.78;4926021;28;122529;-80
2022/08/18 01:22:59;;;;;;;26.40;16.57;;;;;;;23.23;72.21;100792.59;4923653;28;123632;-80
2022/08/18 01:28:11;;;;;;;25.95;15.80;;;;;;;23.17;72.31;100794.69;4926353;28;122485;-80
2022/08/18 01:30:49;;;;;;;24.02;15.70;;;;;;;23.13;72.39;100785.88;4941753;28;122339;-81
2022/08/18 01:33:17;;;;;;;24.20;15.80;;;;;;;23.12;72.80;100787.16;4918432;28;122493;-81
2022/08/18 01:35:48;;;;;;;26.35;15.40;;;;;;;23.15;72.16;100788.91;4935129;28;122671;-81
2022/08/18 01:38:21;;;;;;;26.35;15.77;;;;;;;23.11;72.61;100780.06;4933967;28;122329;-81
2022/08/18 01:40:47;;;;;;;25.27;15.63;;;;;;;23.17;72.75;100789.09;4915272;28;122763;-81
2022/08/18 01:43:20;;;;;;;26.40;16.17;;;;;;;23.12;72.46;100775.97;4930678;28;122382;-80
2022/08/18 01:45:46;;;;;;;30.20;17.10;;;;;;;23.14;72.70;100779.00;4917195;28;125591;-80
2022/08/18 01:48:12;;;;;;;26.20;16.77;;;;;;;23.16;72.72;100776.41;4944020;28;122864;-80
2022/08/18 01:50:40;;;;;;;29.48;18.23;;;;;;;23.13;72.51;100776.72;4909870;28;122936;-83
2022/08/18 01:53:10;;;;;;;28.42;19.33;;;;;;;23.17;72.58;100774.38;4934715;28;123226;-83
2022/08/18 01:55:38;;;;;;;28.95;19.42;;;;;;;23.18;72.95;100787.06;4940133;28;124739;-83
2022/08/18 01:58:05;;;;;;;27.63;20.17;;;;;;;23.18;72.19;100784.25;4936174;28;122875;-82
2022/08/18 02:00:31;;;;;;;32.78;21.63;;;;;;;23.13;72.06;100769.09;4926525;28;122649;-82
2022/08/18 02:02:59;;;;;;;38.13;24.87;;;;;;;23.23;73.19;100789.03;4913929;28;125754;-82
2022/08/18 02:05:43;;;;;;;37.53;25.65;;;;;;;23.21;72.71;100786.78;4934926;28;123605;-82
2022/08/18 02:08:12;;;;;;;42.05;27.38;;;;;;;23.31;72.91;100803.13;4942935;28;122101;-82
2022/08/18 02:10:38;;;;;;;46.38;29.10;;;;;;;23.33;73.07;100794.94;4919403;28;124605;-82
2022/08/18 02:13:04;;;;;;;44.70;29.58;;;;;;;23.40;73.02;100794.31;4917660;28;122284;-82
2022/08/18 02:15:30;;;;;;;49.47;32.42;;;;;;;23.44;72.30;100789.91;4904536;28;122718;-82
2022/08/18 02:17:56;;;;;;;50.25;33.63;;;;;;;23.39;72.74;100770.41;4938959;28;126176;-82
2022/08/18 02:20:22;;;;;;;58.42;37.83;;;;;;;23.45;72.54;100771.06;4923346;28;122043;-82
2022/08/18 02:22:49;;;;;;;64.38;42.78;;;;;;;23.52;72.01;100776.00;4918999;28;125091;-82
2022/08/18 02:25:16;;;;;;;68.10;43.08;;;;;;;23.53;72.41;100774.72;4924040;28;125237;-82
2022/08/18 02:27:43;;;;;;;80.47;49.20;;;;;;;23.54;72.69;100770.63;4937763;28;121901;-82
2022/08/18 02:30:12;;;;;;;77.13;50.13;;;;;;;23.56;71.58;100784.88;4908116;28;124571;-82
2022/08/18 02:32:38;;;;;;;76.40;48.33;;;;;;;23.55;72.45;100789.69;4941016;28;122798;-82
2022/08/18 02:35:06;;;;;;;75.87;47.77;;;;;;;23.56;71.81;100807.25;4932292;28;122718;-82
2022/08/18 02:37:31;;;;;;;91.07;54.70;;;;;;;23.60;72.61;100826.53;4939331;28;123676;-82
2022/08/18 02:39:57;;;;;;;88.20;54.35;;;;;;;23.57;72.96;100831.16;4936486;28;124151;-82
2022/08/18 02:42:23;;;;;;;155.23;88.53;;;;;;;23.61;72.59;100840.00;4939422;28;122260;-82
2022/08/18 02:44:49;;;;;;;124.03;73.13;;;;;;;23.54;72.37;100832.97;4921760;28;123534;-82
2022/08/18 02:47:19;;;;;;;92.05;56.30;;;;;;;23.56;72.34;100836.00;4912791;28;122926;-82
2022/08/18 02:49:45;;;;;;;102.55;61.75;;;;;;;23.54;71.91;100830.16;4925973;28;123663;-82
2022/08/18 02:52:10;;;;;;;311.55;183.18;;;;;;;23.51;72.49;100820.06;4925119;28;125314;-82
2022/08/18 02:54:36;;;;;;;251.25;140.40;;;;;;;23.56;72.10;100829.66;4926025;28;122464;-83
2022/08/18 02:57:09;;;;;;;211.77;117.82;;;;;;;23.56;72.11;100829.66;4928951;28;122429;-81
2022/08/18 02:59:37;;;;;;;202.45;120.75;;;;;;;23.55;73.03;100842.13;4925909;28;123586;-82
2022/08/18 03:02:06;;;;;;;223.00;134.38;;;;;;;23.58;72.34;100857.88;4925453;28;123404;-82
2022/08/18 03:04:33;;;;;;;108.43;66.50;;;;;;;23.56;72.20;100857.66;4930127;28;123867;-82
2022/08/18 03:07:01;;;;;;;93.82;57.17;;;;;;;23.54;72.17;100849.00;4936681;28;122106;-82
2022/08/18 03:09:28;;;;;;;107.40;61.27;;;;;;;23.52;71.97;100851.59;4938421;28;122735;-82
2022/08/18 03:11:54;;;;;;;97.70;59.07;;;;;;;23.51;72.66;100844.50;4935123;28;122374;-82
2022/08/18 03:14:19;;;;;;;103.63;61.37;;;;;;;23.52;72.25;100843.19;4941776;28;122294;-82
2022/08/18 03:16:47;;;;;;;181.57;104.23;;;;;;;23.50;72.04;100838.13;4943593;28;123462;-81
2022/08/18 03:19:15;;;;;;;350.70;208.27;;;;;;;23.52;72.54;100854.41;4944187;28;122429;-82
2022/08/18 03:21:43;;;;;;;361.90;216.45;;;;;;;23.56;72.52;100863.25;4927510;28;125040;-82
2022/08/18 03:24:08;;;;;;;293.65;167.32;;;;;;;23.52;72.98;100857.94;4905188;28;125423;-82
2022/08/18 03:26:35;;;;;;;174.60;98.93;;;;;;;23.50;72.74;100843.00;4925289;28;123001;-81
2022/08/18 03:29:00;;;;;;;208.60;125.23;;;;;;;23.56;72.30;100852.06;4938304;28;122485;-82
2022/08/18 03:31:30;;;;;;;290.00;165.87;;;;;;;23.56;72.26;100852.81;4902758;28;125212;-82
2022/08/18 03:33:57;;;;;;;393.13;247.48;;;;;;;23.53;72.50;100842.66;4903399;28;122966;-82
2022/08/18 03:36:26;;;;;;;486.57;294.83;;;;;;;23.60;71.95;100848.94;4933344;28;122871;-82
2022/08/18 03:38:52;;;;;;;433.27;274.33;;;;;;;23.62;72.20;100844.31;4932165;28;125468;-82
2022/08/18 03:41:23;;;;;;;377.27;221.05;;;;;;;23.65;71.85;100843.22;4923673;28;122617;-82
2022/08/18 03:43:50;;;;;;;360.48;200.27;;;;;;;23.67;72.19;100832.25;4925563;28;125812;-82
2022/08/18 03:46:19;;;;;;;218.63;128.00;;;;;;;23.65;72.25;100820.06;4924168;28;122092;-81
2022/08/18 03:48:46;;;;;;;133.57;83.88;;;;;;;23.62;71.95;100821.91;4905137;28;123605;-82
2022/08/18 03:51:18;;;;;;;94.55;62.08;;;;;;;23.62;71.92;100833.09;4934633;28;122405;-82
2022/08/18 03:53:45;;;;;;;89.55;58.45;;;;;;;23.51;71.78;100819.28;4916603;28;123177;-81
2022/08/18 03:56:15;;;;;;;91.03;58.58;;;;;;;23.55;72.04;100833.72;4929717;28;122514;-82
2022/08/18 03:58:44;;;;;;;87.97;56.27;;;;;;;23.50;72.83;100815.75;4936110;28;122845;-82
2022/08/18 04:01:15;;;;;;;84.10;55.67;;;;;;;23.53;72.31;100820.25;4919030;28;122629;-81
2022/08/18 04:03:46;;;;;;;86.13;56.13;;;;;;;23.54;72.41;100807.03;4934284;28;122599;-82
2022/08/18 04:06:21;;;;;;;92.13;58.75;;;;;;;23.50;71.88;100806.59;4942781;28;122392;-82
2022/08/18 04:08:49;;;;;;;92.38;58.55;;;;;;;23.52;72.09;100806.81;4932350;28;122905;-82
2022/08/18 04:11:14;;;;;;;84.00;57.03;;;;;;;23.54;72.05;100809.81;4941143;28;122808;-82
2022/08/18 04:13:40;;;;;;;83.67;55.77;;;;;;;23.58;71.85;100815.88;4907589;28;122834;-82
2022/08/18 04:16:07;;;;;;;81.43;53.42;;;;;;;23.61;71.93;100811.25;4938588;28;121981;-82
2022/08/18 04:18:32;;;;;;;80.47;52.70;;;;;;;23.58;71.95;100815.88;4942673;28;124522;-82
2022/08/18 04:21:04;;;;;;;76.17;53.13;;;;;;;23.65;72.39;100820.81;4930095;28;122675;-82
2022/08/18 04:23:29;;;;;;;80.32;54.10;;;;;;;23.70;72.27;100828.38;4925168;28;124680;-82
2022/08/18 04:25:57;;;;;;;77.50;53.85;;;;;;;23.69;71.73;100821.28;4938831;28;123058;-82
2022/08/18 04:28:23;;;;;;;79.87;54.23;;;;;;;23.70;71.61;100817.19;4941524;28;122515;-82
2022/08/18 04:30:48;;;;;;;81.55;53.50;;;;;;;23.76;71.58;100823.41;4942202;28;123322;-82
2022/08/18 04:33:14;;;;;;;76.07;53.00;;;;;;;23.82;71.99;100832.47;4939456;28;122261;-82
2022/08/18 04:35:40;;;;;;;77.20;53.40;;;;;;;23.86;71.48;100838.47;4943539;28;122179;-82
2022/08/18 04:38:08;;;;;;;78.83;53.23;;;;;;;23.87;71.49;100834.38;4922411;28;126041;-82
2022/08/18 04:40:35;;;;;;;86.93;54.53;;;;;;;23.88;71.03;100846.34;4937369;28;122509;-82
2022/08/18 04:43:14;;;;;;;75.38;50.95;;;;;;;23.87;71.04;100842.78;4935657;28;123194;-82
2022/08/18 04:45:46;;;;;;;88.50;55.38;;;;;;;23.83;72.08;100839.56;4918709;28;125819;-82
2022/08/18 04:48:14;;;;;;;75.88;52.70;;;;;;;23.77;71.79;100822.13;4945917;28;122523;-82
2022/08/18 04:50:41;;;;;;;85.10;54.37;;;;;;;23.72;71.55;100813.84;4914995;28;125632;-82
2022/08/18 04:55:53;;;;;;;73.30;51.57;;;;;;;23.69;71.96;100820.53;4929731;28;122366;-82
2022/08/18 04:58:21;;;;;;;70.95;50.05;;;;;;;23.66;71.82;100815.97;4942231;28;123171;-83
2022/08/18 05:00:56;;;;;;;67.85;49.33;;;;;;;23.68;72.04;100814.16;4939719;28;122750;-82
2022/08/18 05:03:23;;;;;;;69.13;48.22;;;;;;;23.69;72.20;100821.28;4924310;28;123336;-83
2022/08/18 05:05:48;;;;;;;66.37;48.53;;;;;;;23.69;72.58;100821.28;4936311;28;124244;-82
2022/08/18 05:08:14;;;;;;;69.93;49.53;;;;;;;23.70;72.64;100817.19;4928204;28;123045;-82
2022/08/18 05:10:40;;;;;;;71.07;49.33;;;;;;;23.65;72.55;100806.81;4938234;28;122287;-83
2022/08/18 05:13:05;;;;;;;65.18;47.65;;;;;;;23.69;71.97;100817.72;4926558;28;122669;-83
2022/08/18 05:15:32;;;;;;;71.00;50.30;;;;;;;23.65;72.50;100809.63;4945556;28;122757;-82
2022/08/18 05:17:58;;;;;;;61.83;48.10;;;;;;;23.74;72.50;100809.19;4929664;28;125868;-82
2022/08/18 05:20:24;;;;;;;53.30;43.23;;;;;;;23.71;72.13;100801.88;4928604;28;122763;-82
2022/08/18 05:22:50;;;;;;;57.43;43.90;;;;;;;23.75;72.04;100807.16;4942435;28;125393;-82
2022/08/18 05:25:16;;;;;;;54.20;44.17;;;;;;;23.73;71.92;100796.50;4927220;28;126791;-83
2022/08/18 05:27:42;;;;;;;58.53;44.47;;;;;;;23.80;72.61;100809.84;4946296;28;122263;-82
2022/08/18 05:30:10;;;;;;;57.47;43.72;;;;;;;23.82;72.50;100812.84;4930443;28;125042;-83
2022/08/18 05:32:41;;;;;;;56.08;43.25;;;;;;;23.82;72.01;100812.09;4940881;28;123165;-83
2022/08/18 05:35:37;;;;;;;57.13;43.67;;;;;;;23.83;72.40;100800.34;4941894;28;122627;-83
2022/08/18 05:38:14;;;;;;;58.22;44.58;;;;;;;23.82;71.93;100810.03;4945764;28;122721;-83
2022/08/18 05:40:41;;;;;;;54.15;43.95;;;;;;;23.82;71.96;100812.09;4940445;28;123909;-82
2022/08/18 05:43:08;;;;;;;54.85;44.92;;;;;;;23.84;72.90;100823.50;4921447;28;124941;-84
2022/08/18 05:45:34;;;;;;;53.20;43.15;;;;;;;23.82;72.37;100812.84;4926123;28;125648;-82
2022/08/18 05:48:00;;;;;;;52.63;42.78;;;;;;;23.89;72.22;100822.63;4931137;28;123272;-82
2022/08/18 05:50:31;;;;;;;51.03;42.30;;;;;;;23.91;72.04;100819.31;4918825;28;124521;-82
2022/08/18 05:53:08;;;;;;;47.97;41.33;;;;;;;23.86;71.94;100813.28;4922879;28;125339;-82
2022/08/18 05:58:40;;;;;;;49.60;42.15;;;;;;;23.99;71.77;100809.72;4937184;28;122490;-82
2022/08/18 06:01:36;;;;;;;44.22;38.88;;;;;;;23.99;71.44;100817.38;4907011;28;122174;-82
2022/08/18 06:04:15;;;;;;;44.07;39.27;;;;;;;23.96;71.53;100812.84;4921602;28;123438;-82
2022/08/18 06:06:43;;;;;;;44.70;38.22;;;;;;;23.96;71.29;100798.84;4938156;28;122539;-82
2022/08/18 06:09:14;;;;;;;45.30;40.10;;;;;;;24.02;71.68;100807.88;4936681;28;123297;-82
2022/08/18 06:11:40;;;;;;;41.60;37.15;;;;;;;24.00;70.87;100804.88;4917714;28;123378;-82
2022/08/18 06:14:05;;;;;;;40.20;36.07;;;;;;;24.03;70.79;100809.38;4925156;28;125962;-82
2022/08/18 06:16:40;;;;;;;40.97;35.70;;;;;;;24.03;71.20;100809.38;4944595;28;122275;-82
2022/08/18 06:19:35;;;;;;;40.95;34.80;;;;;;;24.02;71.16;100807.88;4919917;28;123892;-83
2022/08/18 06:22:35;;;;;;;38.35;34.13;;;;;;;24.07;70.88;100812.59;4931417;28;122482;-82
2022/08/18 06:25:23;;;;;;;36.95;32.95;;;;;;;24.12;71.48;100808.91;4939037;28;124080;-82
2022/08/18 06:27:54;;;;;;;37.95;33.88;;;;;;;24.19;71.10;100820.22;4937012;28;123305;-82
2022/08/18 06:30:38;;;;;;;35.15;31.38;;;;;;;24.30;71.25;100824.09;4935728;28;122471;-82
2022/08/18 06:33:22;;;;;;;32.60;29.10;;;;;;;24.40;69.89;100822.38;4908770;28;124857;-82
2022/08/18 06:35:53;;;;;;;31.58;28.08;;;;;;;24.46;70.13;100817.38;4937809;28;122528;-83
2022/08/18 06:38:44;;;;;;;31.90;28.60;;;;;;;24.53;70.49;100827.16;4943307;28;122621;-83
2022/08/18 06:41:18;;;;;;;34.17;30.45;;;;;;;24.61;70.43;100825.22;4922517;28;123361;-80
2022/08/18 06:44:08;;;;;;;33.63;30.05;;;;;;;24.60;70.36;100816.00;4913614;28;122628;-80
2022/08/18 06:46:49;;;;;;;34.47;30.70;;;;;;;24.73;69.51;100823.63;4917323;28;123862;-80
2022/08/18 06:49:35;;;;;;;34.10;29.90;;;;;;;24.76;69.18;100828.16;4927361;28;123948;-80
2022/08/18 06:52:21;;;;;;;36.30;31.83;;;;;;;24.85;70.53;100830.50;4933110;28;123727;-81
2022/08/18 06:54:48;;;;;;;34.47;30.70;;;;;;;24.98;70.71;100829.66;4906542;28;123885;-81
2022/08/18 06:57:29;;;;;;;32.40;29.00;;;;;;;25.14;69.74;100831.31;4918034;28;126602;-81
2022/08/18 07:00:08;;;;;;;33.63;30.05;;;;;;;25.25;69.40;100831.03;4936297;28;122632;-81
2022/08/18 07:02:44;;;;;;;31.40;28.15;;;;;;;25.33;69.16;100826.25;4944065;28;122342;-81
2022/08/18 07:05:13;;;;;;;30.25;27.25;;;;;;;25.39;68.76;100832.44;4928031;28;122667;-81
2022/08/18 07:07:42;;;;;;;30.95;27.63;;;;;;;25.39;68.79;100826.84;4927940;28;122404;-81
2022/08/18 07:10:13;;;;;;;30.70;27.50;;;;;;;25.45;68.51;100832.28;4928411;28;122427;-81
2022/08/18 07:12:40;;;;;;;30.58;27.25;;;;;;;25.48;68.53;100834.00;4927901;28;122256;-81
2022/08/18 07:15:06;;;;;;;30.52;27.45;;;;;;;25.45;68.09;100832.28;4913552;28;126035;-82
2022/08/18 07:17:39;;;;;;;31.00;27.70;;;;;;;25.48;67.66;100839.63;4908199;28;125951;-81
2022/08/18 07:20:19;;;;;;;30.43;27.17;;;;;;;25.49;67.77;100841.13;4934218;28;122569;-81
2022/08/18 07:22:58;;;;;;;29.77;26.77;;;;;;;25.46;68.17;100847.84;4932936;28;123217;-81
2022/08/18 07:25:28;;;;;;;29.17;26.27;;;;;;;25.45;68.37;100837.16;4929199;28;123901;-80
2022/08/18 07:27:55;;;;;;;29.58;26.45;;;;;;;25.47;68.46;100838.09;4921398;28;124684;-81
2022/08/18 07:30:21;;;;;;;27.75;24.85;;;;;;;25.55;67.95;100843.78;4937916;28;123525;-81
2022/08/18 07:33:14;;;;;;;27.43;24.17;;;;;;;25.58;67.75;100843.44;4934193;28;122959;-81
2022/08/18 07:36:04;;;;;;;26.10;23.47;;;;;;;25.65;66.84;100848.34;4904774;28;123251;-81
2022/08/18 07:38:32;;;;;;;25.95;23.42;;;;;;;25.73;67.97;100854.03;4927760;28;122644;-82
2022/08/18 07:41:07;;;;;;;24.85;22.30;;;;;;;25.75;67.89;100859.09;4911897;28;122465;-81
2022/08/18 07:43:45;;;;;;;24.30;21.70;;;;;;;25.73;66.61;100858.91;4912826;28;123314;-80
2022/08/18 07:46:50;;;;;;;25.40;22.70;;;;;;;25.64;67.56;100852.47;4905251;28;123953;-81
2022/08/18 07:49:21;;;;;;;24.65;22.05;;;;;;;25.69;68.09;100865.63;4929801;28;122768;-80
2022/08/18 07:52:06;;;;;;;23.88;21.20;;;;;;;25.66;68.09;100852.66;4924382;28;125208;-80
2022/08/18 07:54:49;;;;;;;23.55;21.15;;;;;;;25.69;67.26;100862.81;4926224;28;122623;-80
2022/08/18 07:57:35;;;;;;;25.02;22.33;;;;;;;25.67;67.64;100857.00;4903517;28;123320;-81
2022/08/18 08:00:28;;;;;;;25.67;23.00;;;;;;;25.67;67.74;100856.25;4933341;28;122586;-81
2022/08/18 08:03:30;;;;;;;24.88;22.17;;;;;;;25.60;67.47;100854.88;4925254;28;122651;-81
2022/08/18 08:06:08;;;;;;;25.27;22.73;;;;;;;25.57;67.87;100858.78;4936465;28;122179;-80
2022/08/18 08:09:09;;;;;;;25.02;22.42;;;;;;;25.65;67.87;100851.16;4938232;28;122918;-81
2022/08/18 08:11:50;;;;;;;25.33;22.13;;;;;;;25.76;67.59;100850.09;4940746;28;123072;-80
2022/08/18 08:14:36;;;;;;;25.80;20.75;;;;;;;25.98;67.93;100849.47;4928571;28;124403;-81
2022/08/18 08:17:16;;;;;;;22.80;20.40;;;;;;;26.12;66.66;100852.94;4921276;28;122294;-80
2022/08/18 08:20:10;;;;;;;22.88;20.52;;;;;;;26.26;66.88;100862.75;4936971;28;123381;-81
2022/08/18 08:22:51;;;;;;;24.40;21.90;;;;;;;26.38;65.50;100854.75;4922332;28;123888;-81
2022/08/18 08:25:20;;;;;;;23.00;20.55;;;;;;;26.51;65.62;100848.97;4922166;28;123428;-81
2022/08/18 08:28:15;;;;;;;21.77;19.50;;;;;;;26.64;64.65;100850.88;4935245;28;123845;-81
2022/08/18 08:31:04;;;;;;;22.23;19.80;;;;;;;26.65;64.25;100849.56;4932083;28;123028;-81
2022/08/18 08:33:46;;;;;;;21.63;19.33;;;;;;;26.68;64.27;100853.31;4927148;28;122598;-81
2022/08/18 08:36:20;;;;;;;22.00;19.40;;;;;;;26.71;64.49;100846.56;4929542;28;122435;-81
2022/08/18 08:39:04;;;;;;;21.20;19.00;;;;;;;26.88;63.94;100853.16;4928784;28;122820;-82
2022/08/18 08:41:36;;;;;;;20.65;18.27;;;;;;;26.98;62.95;100849.81;4930838;28;123178;-81
2022/08/18 08:44:06;;;;;;;21.33;19.03;;;;;;;26.98;62.65;100853.38;4917773;28;125394;-81
2022/08/18 08:47:01;;;;;;;21.00;18.30;;;;;;;27.02;63.53;100842.50;4934596;28;122685;-81
2022/08/18 08:49:33;;;;;;;20.07;17.20;;;;;;;27.15;62.74;100844.38;4933373;28;122612;-82
2022/08/18 08:52:06;;;;;;;18.63;16.73;;;;;;;27.28;63.01;100849.06;4910861;28;124375;-81
2022/08/18 08:54:42;;;;;;;18.92;16.98;;;;;;;27.37;61.95;100854.13;4950561;28;122743;-81
2022/08/18 08:57:10;;;;;;;17.70;15.43;;;;;;;27.36;62.38;100847.75;4921454;28;122987;-82
2022/08/18 08:59:38;;;;;;;16.77;15.02;;;;;;;27.38;61.31;100856.38;4903506;28;126726;-81
2022/08/18 09:02:25;;;;;;;17.73;15.90;;;;;;;27.35;60.54;100851.13;4927500;28;122152;-82
2022/08/18 09:04:54;;;;;;;19.60;16.00;;;;;;;27.26;61.50;100843.25;4924641;28;123489;-82
2022/08/18 09:07:59;;;;;;;17.47;15.70;;;;;;;27.18;61.90;100840.44;4930451;28;122755;-82
2022/08/18 09:10:48;;;;;;;18.83;16.23;;;;;;;27.17;61.60;100838.94;4912372;28;124208;-82
2022/08/18 09:13:44;;;;;;;18.40;15.38;;;;;;;27.19;61.52;100839.88;4936889;28;123026;-82
2022/08/18 09:16:47;;;;;;;17.85;15.95;;;;;;;27.15;61.82;100836.69;4933333;28;123034;-81
2022/08/18 09:19:47;;;;;;;16.02;14.55;;;;;;;27.15;62.14;100845.13;4936322;28;122539;-82
2022/08/18 09:22:21;;;;;;;16.08;14.48;;;;;;;27.16;61.70;100857.13;4934775;28;124193;-82
2022/08/18 09:25:28;;;;;;;16.70;14.50;;;;;;;27.11;61.05;100852.44;4905098;28;123049;-82
2022/08/18 09:28:21;;;;;;;15.20;13.60;;;;;;;27.14;61.11;100840.06;4918105;28;123229;-82
2022/08/18 09:31:04;;;;;;;16.70;14.40;;;;;;;27.15;60.82;100853.56;4938170;28;122652;-82
2022/08/18 09:34:07;;;;;;;15.23;13.50;;;;;;;27.13;60.52;100842.13;4918475;28;123018;-82
2022/08/18 09:37:01;;;;;;;14.65;13.18;;;;;;;27.27;60.42;100848.31;4922707;28;122526;-82
2022/08/18 09:42:50;;;;;;;14.25;12.75;;;;;;;27.37;60.72;100842.88;4940053;28;122548;-82
2022/08/18 09:45:50;;;;;;;14.43;12.93;;;;;;;27.39;60.16;100843.03;4931168;28;124589;-82
2022/08/18 09:48:31;;;;;;;14.65;12.63;;;;;;;27.39;61.10;100834.59;4916786;28;122776;-82
2022/08/18 09:51:22;;;;;;;14.13;12.63;;;;;;;27.38;59.83;100835.91;4921379;28;123142;-82
2022/08/18 09:53:53;;;;;;;14.98;13.48;;;;;;;27.36;59.60;100841.38;4920605;28;122777;-82
2022/08/18 09:56:48;;;;;;;15.50;13.25;;;;;;;27.35;60.08;100840.63;4906771;28;125533;-82
2022/08/18 09:59:49;;;;;;;15.20;13.52;;;;;;;27.44;61.01;100840.03;4925886;28;122826;-82
2022/08/18 10:02:36;;;;;;;17.27;14.77;;;;;;;27.47;60.51;100838.91;4912451;28;123023;-82
2022/08/18 10:05:13;;;;;;;16.58;14.85;;;;;;;27.44;61.11;100834.38;4919916;28;123183;-82
2022/08/18 10:07:42;;;;;;;17.25;14.45;;;;;;;27.40;61.52;100834.03;4939672;28;122961;-82
2022/08/18 10:10:14;;;;;;;16.38;14.68;;;;;;;27.34;60.44;100833.47;4922402;28;122541;-82
2022/08/18 10:13:20;;;;;;;16.17;14.45;;;;;;;27.30;60.78;100830.28;4935301;28;123201;-81
2022/08/18 10:16:09;;;;;;;16.38;14.00;;;;;;;27.21;60.88;100834.44;4940244;28;124501;-82
2022/08/18 10:19:03;;;;;;;16.43;14.60;;;;;;;27.21;61.56;100825.25;4944890;28;123092;-82
2022/08/18 10:21:57;;;;;;;15.27;13.75;;;;;;;27.20;61.57;100832.91;4932222;28;124714;-82
2022/08/18 10:24:29;;;;;;;15.53;13.70;;;;;;;27.25;60.98;100828.44;4901553;28;122672;-82
2022/08/18 10:27:05;;;;;;;14.80;12.30;;;;;;;27.34;61.90;100830.66;4935739;28;122481;-83
2022/08/18 10:29:40;;;;;;;16.52;13.15;;;;;;;27.46;60.25;100836.66;4922038;28;125900;-84
2022/08/18 10:32:07;;;;;;;14.32;12.88;;;;;;;27.44;60.64;100831.56;4928047;28;123017;-82
2022/08/18 10:34:48;;;;;;;16.38;13.00;;;;;;;27.46;60.16;100826.16;4941130;28;122722;-83
2022/08/18 10:37:35;;;;;;;14.07;12.30;;;;;;;27.51;60.02;100825.19;4927780;28;122979;-83
2022/08/18 10:40:00;;;;;;;13.68;12.18;;;;;;;27.63;60.60;100830.44;4929734;28;123526;-83
2022/08/18 10:42:37;;;;;;;13.13;11.00;;;;;;;27.77;59.29;100826.09;4914699;28;125491;-83
2022/08/18 10:45:29;;;;;;;13.52;11.77;;;;;;;27.95;57.90;100812.91;4921531;28;122783;-83
2022/08/18 10:48:04;;;;;;;11.43;9.93;;;;;;;28.13;57.51;100818.06;4905876;28;122972;-82
2022/08/18 10:50:43;;;;;;;15.07;10.70;;;;;;;28.25;57.65;100815.59;4927029;28;124339;-82
2022/08/18 10:53:16;;;;;;;12.07;10.88;;;;;;;28.35;56.59;100812.91;4926228;28;123589;-82
2022/08/18 10:55:59;;;;;;;12.15;10.98;;;;;;;28.34;56.14;100811.41;4922597;28;123295;-82
2022/08/18 10:58:29;;;;;;;11.25;10.23;;;;;;;28.43;55.48;100822.09;4923773;28;124192;-81
2022/08/18 11:01:16;;;;;;;12.48;11.27;;;;;;;28.44;55.70;100823.56;4943836;28;122298;-82
2022/08/18 11:04:09;;;;;;;13.23;11.80;;;;;;;28.42;55.63;100824.16;4941859;28;122198;-82
2022/08/18 11:06:47;;;;;;;12.27;10.90;;;;;;;28.48;56.29;100818.28;4931470;28;122385;-82
2022/08/18 11:09:24;;;;;;;12.13;11.00;;;;;;;28.53;55.72;100816.56;4927812;28;122393;-82
2022/08/18 11:11:52;;;;;;;14.07;11.33;;;;;;;28.55;56.56;100802.63;4917776;28;123992;-82
2022/08/18 11:14:41;;;;;;;13.20;11.90;;;;;;;28.72;56.08;100826.03;4932779;28;122617;-82
2022/08/18 11:17:30;;;;;;;12.70;11.33;;;;;;;28.78;55.89;100820.16;4932429;28;123161;-82
2022/08/18 11:19:59;;;;;;;11.23;10.02;;;;;;;28.73;55.38;100819.06;4924334;28;124791;-82
2022/08/18 11:22:31;;;;;;;11.88;10.73;;;;;;;28.70;56.20;100822.28;4921131;28;122418;-82
2022/08/18 11:25:35;;;;;;;12.43;11.20;;;;;;;28.65;55.66;100823.25;4928851;28;123462;-82
2022/08/18 11:28:02;;;;;;;12.97;11.50;;;;;;;28.58;55.25;100830.44;4925412;28;124387;-82
2022/08/18 11:30:36;;;;;;;13.65;12.10;;;;;;;28.47;54.80;100836.53;4908418;28;123077;-83
2022/08/18 11:33:03;;;;;;;12.85;11.55;;;;;;;28.34;55.56;100829.06;4909040;28;124990;-82
2022/08/18 11:35:32;;;;;;;13.73;11.82;;;;;;;28.26;55.68;100831.19;4923912;28;122524;-83
2022/08/18 11:38:02;;;;;;;12.30;11.10;;;;;;;28.21;55.84;100817.28;4899999;28;124557;-82
2022/08/18 11:40:40;;;;;;;13.20;11.80;;;;;;;28.26;56.70;100813.53;4924690;28;124015;-82
2022/08/18 11:43:09;;;;;;;14.13;12.00;;;;;;;28.36;56.15;100823.59;4925735;28;122487;-82
2022/08/18 11:45:46;;;;;;;13.85;12.27;;;;;;;28.42;55.61;100810.06;4927642;28;123082;-83
2022/08/18 11:48:27;;;;;;;13.57;11.70;;;;;;;28.46;55.39;100812.47;4909815;28;125884;-82
2022/08/18 11:51:00;;;;;;;13.38;12.00;;;;;;;28.45;55.64;100813.78;4917828;28;122494;-81